sensor_id;sensor_type;location;lat;lon;timestamp;temperature;humidity
1578;DHT22;57623;53.608;10.004;2023-07-20T00:00:49;14.80;99.90
1578;DHT22;57623;53.608;10.004;2023-07-20T00:03:20;14.70;99.90
1578;DHT22;57623;53.608;10.004;2023-07-20T00:05:50;14.70;99.90
1578;DHT22;57623;53.608;10.004;2023-07-20T00:08:18;14.70;99.90
1578;DHT22;57623;53.608;10.004;2023-07-20T00:10:46;14.70;99.90
1578;DHT22;57623;53.608;10.004;2023-07-20T00:13:15;14.70;99.90
1578;DHT22;57623;53.608;10.004;2023-07-20T00:15:45;14.70;99.90
1578;DHT22;57623;53.608;10.004;2023-07-20T00:18:13;14.80;99.90
1578;DHT22;57623;53.608;10.004;2023-07-20T00:20:41;14.80;99.90
1578;DHT22;57623;53.608;10.004;2023-07-20T00:23:09;14.80;99.90
1578;DHT22;57623;53.608;10.004;2023-07-20T00:25:37;14.90;99.90
1578;DHT22;57623;53.608;10.004;2023-07-20T00:28:05;14.80;99.90
1578;DHT22;57623;53.608;10.004;2023-07-20T00:30:35;14.80;99.90
1578;DHT22;57623;53.608;10.004;2023-07-20T00:33:03;14.90;99.90
1578;DHT22;57623;53.608;10.004;2023-07-20T00:35:31;14.90;99.90
1578;DHT22;57623;53.608;10.004;2023-07-20T00:37:59;14.90;99.90
1578;DHT22;57623;53.608;10.004;2023-07-20T00:40:27;14.90;99.90
1578;DHT22;57623;53.608;10.004;2023-07-20T00:42:55;14.90;99.90
1578;DHT22;57623;53.608;10.004;2023-07-20T00:45:24;14.90;99.90
1578;DHT22;57623;53.608;10.004;2023-07-20T00:47:54;14.90;99.90
1578;DHT22;57623;53.608;10.004;2023-07-20T00:50:23;15.00;99.90
1578;DHT22;57623;53.608;10.004;2023-07-20T00:52:51;15.00;99.90
1578;DHT22;57623;53.608;10.004;2023-07-20T00:55:19;15.00;99.90
1578;DHT22;57623;53.608;10.004;2023-07-20T00:57:48;14.90;99.90
1578;DHT22;57623;53.608;10.004;2023-07-20T01:00:16;14.90;99.90
1578;DHT22;57623;53.608;10.004;2023-07-20T01:02:44;14.90;99.90
1578;DHT22;57623;53.608;10.004;2023-07-20T01:05:15;14.80;99.90
1578;DHT22;57623;53.608;10.004;2023-07-20T01:07:49;14.90;99.90
1578;DHT22;57623;53.608;10.004;2023-07-20T01:10:25;14.80;99.90
1578;DHT22;57623;53.608;10.004;2023-07-20T01:12:55;14.80;99.90
1578;DHT22;57623;53.608;10.004;2023-07-20T01:15:24;14.80;99.90
1578;DHT22;57623;53.608;10.004;2023-07-20T01:17:52;14.80;99.90
1578;DHT22;57623;53.608;10.004;2023-07-20T01:20:22;14.80;99.90
1578;DHT22;57623;53.608;10.004;2023-07-20T01:23:07;14.80;99.90
1578;DHT22;57623;53.608;10.004;2023-07-20T01:25:57;14.80;99.90
1578;DHT22;57623;53.608;10.004;2023-07-20T01:28:50;14.80;99.90
1578;DHT22;57623;53.608;10.004;2023-07-20T01:31:27;14.80;99.90
1578;DHT22;57623;53.608;10.004;2023-07-20T01:33:58;14.80;99.90
1578;DHT22;57623;53.608;10.004;2023-07-20T01:36:30;14.80;99.90
1578;DHT22;57623;53.608;10.004;2023-07-20T01:38:59;14.70;99.90
1578;DHT22;57623;53.608;10.004;2023-07-20T01:41:27;14.70;99.90
1578;DHT22;57623;53.608;10.004;2023-07-20T01:43:57;14.70;99.90
1578;DHT22;57623;53.608;10.004;2023-07-20T01:46:27;14.70;99.90
1578;DHT22;57623;53.608;10.004;2023-07-20T01:48:55;14.70;99.90
1578;DHT22;57623;53.608;10.004;2023-07-20T01:51:23;14.80;99.90
1578;DHT22;57623;53.608;10.004;2023-07-20T01:53:51;14.80;99.90
1578;DHT22;57623;53.608;10.004;2023-07-20T01:56:19;14.80;99.90
1578;DHT22;57623;53.608;10.004;2023-07-20T01:58:48;14.80;99.90
1578;DHT22;57623;53.608;10.004;2023-07-20T02:01:16;14.80;99.90
1578;DHT22;57623;53.608;10.004;2023-07-20T02:03:45;14.80;99.90
1578;DHT22;57623;53.608;10.004;2023-07-20T02:06:13;14.80;99.90
1578;DHT22;57623;53.608;10.004;2023-07-20T02:08:41;14.80;99.90
1578;DHT22;57623;53.608;10.004;2023-07-20T02:11:09;14.80;99.90
1578;DHT22;57623;53.608;10.004;2023-07-20T02:13:37;14.80;99.90
1578;DHT22;57623;53.608;10.004;2023-07-20T02:16:05;14.70;99.90
1578;DHT22;57623;53.608;10.004;2023-07-20T02:18:33;14.70;99.90
1578;DHT22;57623;53.608;10.004;2023-07-20T02:21:03;14.70;99.90
1578;DHT22;57623;53.608;10.004;2023-07-20T02:23:31;14.70;99.90
1578;DHT22;57623;53.608;10.004;2023-07-20T02:25:59;14.70;99.90
1578;DHT22;57623;53.608;10.004;2023-07-20T02:28:27;14.60;99.90
1578;DHT22;57623;53.608;10.004;2023-07-20T02:30:55;14.60;99.90
1578;DHT22;57623;53.608;10.004;2023-07-20T02:33:23;14.60;99.90
1578;DHT22;57623;53.608;10.004;2023-07-20T02:35:51;14.70;99.90
1578;DHT22;57623;53.608;10.004;2023-07-20T02:38:21;14.60;99.90
1578;DHT22;57623;53.608;10.004;2023-07-20T02:40:48;14.60;99.90
1578;DHT22;57623;53.608;10.004;2023-07-20T02:43:17;14.60;99.90
1578;DHT22;57623;53.608;10.004;2023-07-20T02:45:45;14.70;99.90
1578;DHT22;57623;53.608;10.004;2023-07-20T02:48:13;14.70;99.90
1578;DHT22;57623;53.608;10.004;2023-07-20T02:50:41;14.60;99.90
1578;DHT22;57623;53.608;10.004;2023-07-20T02:53:10;14.60;99.90
1578;DHT22;57623;53.608;10.004;2023-07-20T02:55:39;14.60;99.90
1578;DHT22;57623;53.608;10.004;2023-07-20T02:58:07;14.60;99.90
1578;DHT22;57623;53.608;10.004;2023-07-20T03:00:35;14.60;99.90
1578;DHT22;57623;53.608;10.004;2023-07-20T03:03:03;14.70;99.90
1578;DHT22;57623;53.608;10.004;2023-07-20T03:05:31;14.70;99.90
1578;DHT22;57623;53.608;10.004;2023-07-20T03:07:59;14.70;99.90
1578;DHT22;57623;53.608;10.004;2023-07-20T03:10:29;14.60;99.90
1578;DHT22;57623;53.608;10.004;2023-07-20T03:12:58;14.60;99.90
1578;DHT22;57623;53.608;10.004;2023-07-20T03:15:26;14.60;99.90
1578;DHT22;57623;53.608;10.004;2023-07-20T03:17:55;14.50;99.90
1578;DHT22;57623;53.608;10.004;2023-07-20T03:20:25;14.50;99.90
1578;DHT22;57623;53.608;10.004;2023-07-20T03:22:53;14.50;99.90
1578;DHT22;57623;53.608;10.004;2023-07-20T03:25:21;14.50;99.90
1578;DHT22;57623;53.608;10.004;2023-07-20T03:27:52;14.40;99.90
1578;DHT22;57623;53.608;10.004;2023-07-20T03:30:21;14.40;99.90
1578;DHT22;57623;53.608;10.004;2023-07-20T03:32:50;14.30;99.90
1578;DHT22;57623;53.608;10.004;2023-07-20T03:35:18;14.30;99.90
1578;DHT22;57623;53.608;10.004;2023-07-20T03:37:46;14.30;99.90
1578;DHT22;57623;53.608;10.004;2023-07-20T03:40:14;14.30;99.90
1578;DHT22;57623;53.608;10.004;2023-07-20T03:42:42;14.40;99.90
1578;DHT22;57623;53.608;10.004;2023-07-20T03:45:10;14.40;99.90
1578;DHT22;57623;53.608;10.004;2023-07-20T03:47:40;14.30;99.90
1578;DHT22;57623;53.608;10.004;2023-07-20T03:50:08;14.30;99.90
1578;DHT22;57623;53.608;10.004;2023-07-20T03:52:37;14.30;99.90
1578;DHT22;57623;53.608;10.004;2023-07-20T03:55:05;14.30;99.90
1578;DHT22;57623;53.608;10.004;2023-07-20T03:57:34;14.40;99.90
1578;DHT22;57623;53.608;10.004;2023-07-20T04:00:02;14.50;99.90
1578;DHT22;57623;53.608;10.004;2023-07-20T04:02:33;14.50;99.90
1578;DHT22;57623;53.608;10.004;2023-07-20T04:05:03;14.50;99.90
1578;DHT22;57623;53.608;10.004;2023-07-20T04:07:31;14.50;99.90
1578;DHT22;57623;53.608;10.004;2023-07-20T04:09:59;14.50;99.90
1578;DHT22;57623;53.608;10.004;2023-07-20T04:12:27;14.50;99.90
1578;DHT22;57623;53.608;10.004;2023-07-20T04:14:55;14.50;99.90
1578;DHT22;57623;53.608;10.004;2023-07-20T04:17:23;14.50;99.90
1578;DHT22;57623;53.608;10.004;2023-07-20T04:19:51;14.50;99.90
1578;DHT22;57623;53.608;10.004;2023-07-20T04:22:20;14.50;99.90
1578;DHT22;57623;53.608;10.004;2023-07-20T04:24:48;14.50;99.90
1578;DHT22;57623;53.608;10.004;2023-07-20T04:27:16;14.50;99.90
1578;DHT22;57623;53.608;10.004;2023-07-20T04:29:44;14.50;99.90
1578;DHT22;57623;53.608;10.004;2023-07-20T04:32:12;14.50;99.90
1578;DHT22;57623;53.608;10.004;2023-07-20T04:34:41;14.50;99.90
1578;DHT22;57623;53.608;10.004;2023-07-20T04:37:09;14.50;99.90
1578;DHT22;57623;53.608;10.004;2023-07-20T04:39:38;14.50;99.90
1578;DHT22;57623;53.608;10.004;2023-07-20T04:42:06;14.60;99.90
1578;DHT22;57623;53.608;10.004;2023-07-20T04:44:34;14.70;99.90
1578;DHT22;57623;53.608;10.004;2023-07-20T04:47:02;14.70;99.90
1578;DHT22;57623;53.608;10.004;2023-07-20T04:49:31;14.70;99.90
1578;DHT22;57623;53.608;10.004;2023-07-20T04:51:59;14.70;99.90
1578;DHT22;57623;53.608;10.004;2023-07-20T04:54:26;14.70;99.90
1578;DHT22;57623;53.608;10.004;2023-07-20T04:56:56;14.70;99.90
1578;DHT22;57623;53.608;10.004;2023-07-20T04:59:24;14.70;99.90
1578;DHT22;57623;53.608;10.004;2023-07-20T05:01:52;14.70;99.90
1578;DHT22;57623;53.608;10.004;2023-07-20T05:04:20;14.80;99.90
1578;DHT22;57623;53.608;10.004;2023-07-20T05:06:48;14.80;99.90
1578;DHT22;57623;53.608;10.004;2023-07-20T05:09:16;14.90;99.90
1578;DHT22;57623;53.608;10.004;2023-07-20T05:11:44;14.90;99.90
1578;DHT22;57623;53.608;10.004;2023-07-20T05:14:15;15.00;99.90
1578;DHT22;57623;53.608;10.004;2023-07-20T05:16:43;15.00;99.90
1578;DHT22;57623;53.608;10.004;2023-07-20T05:19:11;15.00;99.90
1578;DHT22;57623;53.608;10.004;2023-07-20T05:21:39;15.10;99.90
1578;DHT22;57623;53.608;10.004;2023-07-20T05:24:07;15.10;99.90
1578;DHT22;57623;53.608;10.004;2023-07-20T05:26:35;15.10;99.90
1578;DHT22;57623;53.608;10.004;2023-07-20T05:29:04;15.10;99.90
1578;DHT22;57623;53.608;10.004;2023-07-20T05:31:34;15.10;99.90
1578;DHT22;57623;53.608;10.004;2023-07-20T05:34:02;15.20;99.90
1578;DHT22;57623;53.608;10.004;2023-07-20T05:36:29;15.20;99.90
1578;DHT22;57623;53.608;10.004;2023-07-20T05:38:58;15.20;99.90
1578;DHT22;57623;53.608;10.004;2023-07-20T05:41:26;15.30;99.90
1578;DHT22;57623;53.608;10.004;2023-07-20T05:43:54;15.30;99.90
1578;DHT22;57623;53.608;10.004;2023-07-20T05:46:22;15.30;99.90
1578;DHT22;57623;53.608;10.004;2023-07-20T05:48:54;15.30;99.90
1578;DHT22;57623;53.608;10.004;2023-07-20T05:51:21;15.30;99.90
1578;DHT22;57623;53.608;10.004;2023-07-20T05:53:49;15.40;99.90
1578;DHT22;57623;53.608;10.004;2023-07-20T05:56:17;15.40;99.90
1578;DHT22;57623;53.608;10.004;2023-07-20T05:58:46;15.40;99.90
1578;DHT22;57623;53.608;10.004;2023-07-20T06:01:14;15.40;99.90
1578;DHT22;57623;53.608;10.004;2023-07-20T06:03:42;15.50;99.90
1578;DHT22;57623;53.608;10.004;2023-07-20T06:06:12;15.50;99.90
1578;DHT22;57623;53.608;10.004;2023-07-20T06:08:40;15.60;99.90
1578;DHT22;57623;53.608;10.004;2023-07-20T06:11:08;15.60;99.90
1578;DHT22;57623;53.608;10.004;2023-07-20T06:13:36;15.60;99.90
1578;DHT22;57623;53.608;10.004;2023-07-20T06:16:04;15.70;99.90
1578;DHT22;57623;53.608;10.004;2023-07-20T06:18:32;15.80;99.90
1578;DHT22;57623;53.608;10.004;2023-07-20T06:21:00;15.80;99.90
1578;DHT22;57623;53.608;10.004;2023-07-20T06:23:29;15.90;99.90
1578;DHT22;57623;53.608;10.004;2023-07-20T06:25:57;16.00;99.90
1578;DHT22;57623;53.608;10.004;2023-07-20T06:28:25;16.10;99.90
1578;DHT22;57623;53.608;10.004;2023-07-20T06:30:59;16.00;99.90
1578;DHT22;57623;53.608;10.004;2023-07-20T06:33:27;16.10;99.90
1578;DHT22;57623;53.608;10.004;2023-07-20T06:35:56;16.10;99.90
1578;DHT22;57623;53.608;10.004;2023-07-20T06:38:24;16.20;99.90
1578;DHT22;57623;53.608;10.004;2023-07-20T06:40:57;16.20;99.90
1578;DHT22;57623;53.608;10.004;2023-07-20T06:43:45;16.30;99.90
1578;DHT22;57623;53.608;10.004;2023-07-20T06:46:15;16.30;99.90
1578;DHT22;57623;53.608;10.004;2023-07-20T06:48:43;16.20;99.90
1578;DHT22;57623;53.608;10.004;2023-07-20T06:51:14;16.20;99.90
1578;DHT22;57623;53.608;10.004;2023-07-20T06:53:42;16.30;99.90
1578;DHT22;57623;53.608;10.004;2023-07-20T06:56:11;16.30;99.90
1578;DHT22;57623;53.608;10.004;2023-07-20T06:58:39;16.30;99.90
1578;DHT22;57623;53.608;10.004;2023-07-20T07:01:07;16.40;99.90
1578;DHT22;57623;53.608;10.004;2023-07-20T07:03:35;16.40;99.90
1578;DHT22;57623;53.608;10.004;2023-07-20T07:06:04;16.30;99.90
1578;DHT22;57623;53.608;10.004;2023-07-20T07:08:32;16.30;99.90
1578;DHT22;57623;53.608;10.004;2023-07-20T07:11:00;16.30;99.90
1578;DHT22;57623;53.608;10.004;2023-07-20T07:13:30;16.20;99.90
1578;DHT22;57623;53.608;10.004;2023-07-20T07:15:58;16.10;99.90
1578;DHT22;57623;53.608;10.004;2023-07-20T07:18:26;16.00;99.90
1578;DHT22;57623;53.608;10.004;2023-07-20T07:20:54;16.00;99.90
1578;DHT22;57623;53.608;10.004;2023-07-20T07:23:22;16.00;99.90
1578;DHT22;57623;53.608;10.004;2023-07-20T07:25:50;16.20;99.90
1578;DHT22;57623;53.608;10.004;2023-07-20T07:28:18;16.30;99.90
1578;DHT22;57623;53.608;10.004;2023-07-20T07:30:48;16.50;99.90
1578;DHT22;57623;53.608;10.004;2023-07-20T07:33:16;16.60;99.90
1578;DHT22;57623;53.608;10.004;2023-07-20T07:35:44;16.70;99.90
1578;DHT22;57623;53.608;10.004;2023-07-20T07:38:11;16.70;99.90
1578;DHT22;57623;53.608;10.004;2023-07-20T07:40:44;16.70;99.90
1578;DHT22;57623;53.608;10.004;2023-07-20T07:43:13;16.60;99.90
1578;DHT22;57623;53.608;10.004;2023-07-20T07:45:41;16.50;99.90
1578;DHT22;57623;53.608;10.004;2023-07-20T07:48:10;16.40;99.90
1578;DHT22;57623;53.608;10.004;2023-07-20T07:50:39;16.20;99.90
1578;DHT22;57623;53.608;10.004;2023-07-20T07:53:07;16.20;99.90
1578;DHT22;57623;53.608;10.004;2023-07-20T07:55:36;16.30;99.90
1578;DHT22;57623;53.608;10.004;2023-07-20T07:58:04;16.30;99.90
1578;DHT22;57623;53.608;10.004;2023-07-20T08:00:32;16.50;99.90
1578;DHT22;57623;53.608;10.004;2023-07-20T08:03:00;16.70;99.90
1578;DHT22;57623;53.608;10.004;2023-07-20T08:05:30;16.80;99.90
1578;DHT22;57623;53.608;10.004;2023-07-20T08:07:58;16.80;99.90
1578;DHT22;57623;53.608;10.004;2023-07-20T08:10:25;16.80;99.90
1578;DHT22;57623;53.608;10.004;2023-07-20T08:12:53;16.70;99.90
1578;DHT22;57623;53.608;10.004;2023-07-20T08:15:21;16.70;99.90
1578;DHT22;57623;53.608;10.004;2023-07-20T08:17:49;16.70;99.90
1578;DHT22;57623;53.608;10.004;2023-07-20T08:20:19;16.80;99.90
1578;DHT22;57623;53.608;10.004;2023-07-20T08:22:54;16.90;99.90
1578;DHT22;57623;53.608;10.004;2023-07-20T08:25:22;17.00;99.90
1578;DHT22;57623;53.608;10.004;2023-07-20T08:27:50;17.10;99.90
1578;DHT22;57623;53.608;10.004;2023-07-20T08:30:21;17.30;99.90
1578;DHT22;57623;53.608;10.004;2023-07-20T08:32:50;17.40;99.90
1578;DHT22;57623;53.608;10.004;2023-07-20T08:35:18;17.40;99.90
1578;DHT22;57623;53.608;10.004;2023-07-20T08:37:48;17.50;99.90
1578;DHT22;57623;53.608;10.004;2023-07-20T08:40:18;17.70;99.90
1578;DHT22;57623;53.608;10.004;2023-07-20T08:42:46;17.80;99.90
1578;DHT22;57623;53.608;10.004;2023-07-20T08:45:16;17.80;99.90
1578;DHT22;57623;53.608;10.004;2023-07-20T08:47:47;17.90;99.90
1578;DHT22;57623;53.608;10.004;2023-07-20T08:50:16;17.90;99.90
1578;DHT22;57623;53.608;10.004;2023-07-20T08:52:44;17.90;99.90
1578;DHT22;57623;53.608;10.004;2023-07-20T08:55:13;17.90;99.90
1578;DHT22;57623;53.608;10.004;2023-07-20T08:57:44;17.90;99.90
1578;DHT22;57623;53.608;10.004;2023-07-20T09:00:14;17.90;99.90
1578;DHT22;57623;53.608;10.004;2023-07-20T09:02:45;17.90;99.90
1578;DHT22;57623;53.608;10.004;2023-07-20T09:05:14;17.70;99.90
1578;DHT22;57623;53.608;10.004;2023-07-20T09:07:42;17.70;99.90
1578;DHT22;57623;53.608;10.004;2023-07-20T09:10:10;17.90;99.90
1578;DHT22;57623;53.608;10.004;2023-07-20T09:12:43;17.80;99.90
1578;DHT22;57623;53.608;10.004;2023-07-20T09:15:12;17.80;99.90
1578;DHT22;57623;53.608;10.004;2023-07-20T09:17:45;18.00;99.90
1578;DHT22;57623;53.608;10.004;2023-07-20T09:20:15;18.10;99.90
1578;DHT22;57623;53.608;10.004;2023-07-20T09:22:47;18.20;99.90
1578;DHT22;57623;53.608;10.004;2023-07-20T09:25:17;18.20;99.90
1578;DHT22;57623;53.608;10.004;2023-07-20T09:27:49;18.30;99.90
1578;DHT22;57623;53.608;10.004;2023-07-20T09:30:19;18.10;99.90
1578;DHT22;57623;53.608;10.004;2023-07-20T09:32:48;17.90;99.90
1578;DHT22;57623;53.608;10.004;2023-07-20T09:35:21;17.70;99.90
1578;DHT22;57623;53.608;10.004;2023-07-20T09:38:00;17.60;99.90
1578;DHT22;57623;53.608;10.004;2023-07-20T09:40:37;17.40;99.90
1578;DHT22;57623;53.608;10.004;2023-07-20T09:43:10;17.30;99.90
1578;DHT22;57623;53.608;10.004;2023-07-20T09:45:42;17.40;99.90
1578;DHT22;57623;53.608;10.004;2023-07-20T09:48:13;17.60;99.90
1578;DHT22;57623;53.608;10.004;2023-07-20T09:50:50;17.60;99.90
1578;DHT22;57623;53.608;10.004;2023-07-20T09:53:19;17.70;99.90
1578;DHT22;57623;53.608;10.004;2023-07-20T09:55:48;17.80;99.90
1578;DHT22;57623;53.608;10.004;2023-07-20T09:58:18;17.80;99.90
1578;DHT22;57623;53.608;10.004;2023-07-20T10:00:48;17.70;99.90
1578;DHT22;57623;53.608;10.004;2023-07-20T10:03:21;17.60;99.90
1578;DHT22;57623;53.608;10.004;2023-07-20T10:05:54;17.60;99.90
1578;DHT22;57623;53.608;10.004;2023-07-20T10:08:25;17.70;99.90
1578;DHT22;57623;53.608;10.004;2023-07-20T10:10:57;17.90;99.90
1578;DHT22;57623;53.608;10.004;2023-07-20T10:13:30;18.00;99.90
1578;DHT22;57623;53.608;10.004;2023-07-20T10:16:02;18.10;99.90
1578;DHT22;57623;53.608;10.004;2023-07-20T10:18:38;18.30;99.90
1578;DHT22;57623;53.608;10.004;2023-07-20T10:21:08;18.40;99.90
1578;DHT22;57623;53.608;10.004;2023-07-20T10:23:40;18.40;99.90
1578;DHT22;57623;53.608;10.004;2023-07-20T10:26:09;18.30;99.90
1578;DHT22;57623;53.608;10.004;2023-07-20T10:28:38;18.40;99.90
1578;DHT22;57623;53.608;10.004;2023-07-20T10:31:08;18.40;99.90
1578;DHT22;57623;53.608;10.004;2023-07-20T10:33:37;18.40;99.90
1578;DHT22;57623;53.608;10.004;2023-07-20T10:36:06;18.50;99.90
1578;DHT22;57623;53.608;10.004;2023-07-20T10:38:41;18.50;99.90
1578;DHT22;57623;53.608;10.004;2023-07-20T10:41:19;18.40;99.90
1578;DHT22;57623;53.608;10.004;2023-07-20T10:43:49;18.40;99.90
1578;DHT22;57623;53.608;10.004;2023-07-20T10:46:42;18.40;99.90
1578;DHT22;57623;53.608;10.004;2023-07-20T10:49:13;18.40;99.90
1578;DHT22;57623;53.608;10.004;2023-07-20T10:51:43;18.60;99.90
1578;DHT22;57623;53.608;10.004;2023-07-20T10:54:46;18.70;99.90
1578;DHT22;57623;53.608;10.004;2023-07-20T10:57:28;18.70;99.90
1578;DHT22;57623;53.608;10.004;2023-07-20T11:00:20;18.60;99.90
1578;DHT22;57623;53.608;10.004;2023-07-20T11:02:50;18.60;99.90
1578;DHT22;57623;53.608;10.004;2023-07-20T11:05:38;18.60;99.90
1578;DHT22;57623;53.608;10.004;2023-07-20T11:08:10;18.80;99.90
1578;DHT22;57623;53.608;10.004;2023-07-20T11:10:39;19.00;99.90
1578;DHT22;57623;53.608;10.004;2023-07-20T11:13:17;19.10;99.90
1578;DHT22;57623;53.608;10.004;2023-07-20T11:15:47;19.10;99.90
1578;DHT22;57623;53.608;10.004;2023-07-20T11:18:15;19.10;99.90
1578;DHT22;57623;53.608;10.004;2023-07-20T11:20:50;19.10;99.90
1578;DHT22;57623;53.608;10.004;2023-07-20T11:23:20;19.10;99.90
1578;DHT22;57623;53.608;10.004;2023-07-20T11:25:49;19.30;99.90
1578;DHT22;57623;53.608;10.004;2023-07-20T11:28:17;19.50;99.90
1578;DHT22;57623;53.608;10.004;2023-07-20T11:30:52;19.70;99.90
1578;DHT22;57623;53.608;10.004;2023-07-20T11:33:22;19.80;99.90
1578;DHT22;57623;53.608;10.004;2023-07-20T11:35:50;19.90;99.90
1578;DHT22;57623;53.608;10.004;2023-07-20T11:38:19;20.10;99.90
1578;DHT22;57623;53.608;10.004;2023-07-20T11:40:47;20.30;99.90
1578;DHT22;57623;53.608;10.004;2023-07-20T11:43:15;20.40;99.90
1578;DHT22;57623;53.608;10.004;2023-07-20T11:45:47;20.50;99.90
1578;DHT22;57623;53.608;10.004;2023-07-20T11:48:16;20.50;99.90
1578;DHT22;57623;53.608;10.004;2023-07-20T11:50:44;20.50;99.90
1578;DHT22;57623;53.608;10.004;2023-07-20T11:53:13;20.50;99.90
1578;DHT22;57623;53.608;10.004;2023-07-20T11:55:42;20.50;99.90
1578;DHT22;57623;53.608;10.004;2023-07-20T11:58:10;20.50;99.90
1578;DHT22;57623;53.608;10.004;2023-07-20T12:00:39;20.50;99.90
1578;DHT22;57623;53.608;10.004;2023-07-20T12:03:09;20.60;99.90
1578;DHT22;57623;53.608;10.004;2023-07-20T12:05:38;20.80;99.90
1578;DHT22;57623;53.608;10.004;2023-07-20T12:08:26;20.90;99.90
1578;DHT22;57623;53.608;10.004;2023-07-20T12:10:54;21.10;99.90
1578;DHT22;57623;53.608;10.004;2023-07-20T12:13:22;21.10;99.90
1578;DHT22;57623;53.608;10.004;2023-07-20T12:15:53;21.10;99.90
1578;DHT22;57623;53.608;10.004;2023-07-20T12:18:34;20.90;99.90
1578;DHT22;57623;53.608;10.004;2023-07-20T12:21:03;20.80;99.90
1578;DHT22;57623;53.608;10.004;2023-07-20T12:23:35;20.60;99.90
1578;DHT22;57623;53.608;10.004;2023-07-20T12:26:06;20.30;99.90
1578;DHT22;57623;53.608;10.004;2023-07-20T12:28:39;20.10;99.90
1578;DHT22;57623;53.608;10.004;2023-07-20T12:31:08;20.00;99.90
1578;DHT22;57623;53.608;10.004;2023-07-20T12:33:38;19.80;99.90
1578;DHT22;57623;53.608;10.004;2023-07-20T12:36:06;19.60;99.90
1578;DHT22;57623;53.608;10.004;2023-07-20T12:38:35;19.50;99.90
1578;DHT22;57623;53.608;10.004;2023-07-20T12:41:03;19.60;99.90
1578;DHT22;57623;53.608;10.004;2023-07-20T12:43:31;19.60;99.90
1578;DHT22;57623;53.608;10.004;2023-07-20T12:45:59;19.60;99.90
1578;DHT22;57623;53.608;10.004;2023-07-20T12:48:28;19.60;99.90
1578;DHT22;57623;53.608;10.004;2023-07-20T12:50:57;19.70;99.90
1578;DHT22;57623;53.608;10.004;2023-07-20T12:53:25;19.80;99.90
1578;DHT22;57623;53.608;10.004;2023-07-20T12:55:54;19.90;99.90
1578;DHT22;57623;53.608;10.004;2023-07-20T12:58:22;20.00;99.90
1578;DHT22;57623;53.608;10.004;2023-07-20T13:00:50;20.10;99.90
1578;DHT22;57623;53.608;10.004;2023-07-20T13:03:18;20.10;99.90
1578;DHT22;57623;53.608;10.004;2023-07-20T13:05:49;20.10;99.90
1578;DHT22;57623;53.608;10.004;2023-07-20T13:08:22;20.10;99.90
1578;DHT22;57623;53.608;10.004;2023-07-20T13:10:52;20.20;99.90
1578;DHT22;57623;53.608;10.004;2023-07-20T13:13:20;20.30;99.90
1578;DHT22;57623;53.608;10.004;2023-07-20T13:15:48;20.40;99.90
1578;DHT22;57623;53.608;10.004;2023-07-20T13:18:17;20.50;99.90
1578;DHT22;57623;53.608;10.004;2023-07-20T13:20:45;20.40;99.90
1578;DHT22;57623;53.608;10.004;2023-07-20T13:23:13;20.50;99.90
1578;DHT22;57623;53.608;10.004;2023-07-20T13:25:43;20.70;99.90
1578;DHT22;57623;53.608;10.004;2023-07-20T13:28:11;20.90;99.90
1578;DHT22;57623;53.608;10.004;2023-07-20T13:30:39;21.30;99.90
1578;DHT22;57623;53.608;10.004;2023-07-20T13:33:07;21.50;99.90
1578;DHT22;57623;53.608;10.004;2023-07-20T13:35:39;21.60;99.90
1578;DHT22;57623;53.608;10.004;2023-07-20T13:38:11;21.60;99.90
1578;DHT22;57623;53.608;10.004;2023-07-20T13:40:39;21.60;99.90
1578;DHT22;57623;53.608;10.004;2023-07-20T13:43:08;21.60;99.90
1578;DHT22;57623;53.608;10.004;2023-07-20T13:45:36;21.60;99.90
1578;DHT22;57623;53.608;10.004;2023-07-20T13:48:06;21.70;99.90
1578;DHT22;57623;53.608;10.004;2023-07-20T13:50:34;21.60;99.90
1578;DHT22;57623;53.608;10.004;2023-07-20T13:53:05;21.80;99.90
1578;DHT22;57623;53.608;10.004;2023-07-20T13:55:36;21.90;99.90
1578;DHT22;57623;53.608;10.004;2023-07-20T13:58:09;22.10;99.90
1578;DHT22;57623;53.608;10.004;2023-07-20T14:00:39;22.30;99.90
1578;DHT22;57623;53.608;10.004;2023-07-20T14:03:07;22.50;99.90
1578;DHT22;57623;53.608;10.004;2023-07-20T14:05:39;22.70;99.90
1578;DHT22;57623;53.608;10.004;2023-07-20T14:08:09;22.80;99.90
1578;DHT22;57623;53.608;10.004;2023-07-20T14:10:37;23.00;99.90
1578;DHT22;57623;53.608;10.004;2023-07-20T14:13:10;23.10;99.90
1578;DHT22;57623;53.608;10.004;2023-07-20T14:15:38;23.00;99.90
1578;DHT22;57623;53.608;10.004;2023-07-20T14:18:06;22.80;99.90
1578;DHT22;57623;53.608;10.004;2023-07-20T14:20:35;22.50;99.90
1578;DHT22;57623;53.608;10.004;2023-07-20T14:23:05;22.30;99.90
1578;DHT22;57623;53.608;10.004;2023-07-20T14:25:33;22.50;99.90
1578;DHT22;57623;53.608;10.004;2023-07-20T14:28:04;22.70;99.90
1578;DHT22;57623;53.608;10.004;2023-07-20T14:30:33;22.70;99.90
1578;DHT22;57623;53.608;10.004;2023-07-20T14:33:01;22.80;99.90
1578;DHT22;57623;53.608;10.004;2023-07-20T14:35:29;22.90;99.90
1578;DHT22;57623;53.608;10.004;2023-07-20T14:37:57;23.00;99.90
1578;DHT22;57623;53.608;10.004;2023-07-20T14:40:25;23.10;99.90
1578;DHT22;57623;53.608;10.004;2023-07-20T14:42:54;23.20;99.90
1578;DHT22;57623;53.608;10.004;2023-07-20T14:45:22;23.40;99.90
1578;DHT22;57623;53.608;10.004;2023-07-20T14:47:51;23.50;99.90
1578;DHT22;57623;53.608;10.004;2023-07-20T14:50:21;23.60;99.90
1578;DHT22;57623;53.608;10.004;2023-07-20T14:52:49;23.80;99.90
1578;DHT22;57623;53.608;10.004;2023-07-20T14:55:17;23.90;99.90
1578;DHT22;57623;53.608;10.004;2023-07-20T14:57:45;24.10;99.90
1578;DHT22;57623;53.608;10.004;2023-07-20T15:00:15;24.20;99.70
1578;DHT22;57623;53.608;10.004;2023-07-20T15:02:43;24.10;98.50
1578;DHT22;57623;53.608;10.004;2023-07-20T15:05:20;24.10;94.40
1578;DHT22;57623;53.608;10.004;2023-07-20T15:07:48;24.30;96.10
1578;DHT22;57623;53.608;10.004;2023-07-20T15:10:16;24.30;95.90
1578;DHT22;57623;53.608;10.004;2023-07-20T15:12:45;24.40;97.20
1578;DHT22;57623;53.608;10.004;2023-07-20T15:15:13;24.40;99.00
1578;DHT22;57623;53.608;10.004;2023-07-20T15:17:43;24.30;99.90
1578;DHT22;57623;53.608;10.004;2023-07-20T15:20:13;24.30;99.90
1578;DHT22;57623;53.608;10.004;2023-07-20T15:22:41;24.40;99.80
1578;DHT22;57623;53.608;10.004;2023-07-20T15:25:12;24.40;99.90
1578;DHT22;57623;53.608;10.004;2023-07-20T15:27:40;24.30;99.90
1578;DHT22;57623;53.608;10.004;2023-07-20T15:30:16;24.20;99.90
1578;DHT22;57623;53.608;10.004;2023-07-20T15:32:47;24.30;99.90
1578;DHT22;57623;53.608;10.004;2023-07-20T15:35:19;24.50;97.70
1578;DHT22;57623;53.608;10.004;2023-07-20T15:37:47;24.70;97.10
1578;DHT22;57623;53.608;10.004;2023-07-20T15:40:15;24.80;96.40
1578;DHT22;57623;53.608;10.004;2023-07-20T15:42:43;24.70;94.70
1578;DHT22;57623;53.608;10.004;2023-07-20T15:45:20;24.70;93.50